Harbor Springs Airport


Codes: KMGN/
Name: Harbor Springs Airport
City: Harbor Springs
Country: United States
Elevation: 686 ft.
Wikipedia:

Photos at Harbor Springs Airport


   Photos courtesy of SpottingLog. You can add your own sightings and photos by signing up for a free trial today.



No photos found.

Weather at Harbor Springs Airport


Time (UTC)DescriptionTempratureWindCloud coverageVisibilityPressureHumidity
13-Jun-2024 03:00Light Rain20°C9 mph, SW75%10000m1007hPa78%
13-Jun-2024 06:00Light Rain19°C11 mph, SW83%10000m1007hPa83%
13-Jun-2024 09:00Light Rain17°C2 mph, S90%10000m1006hPa92%
13-Jun-2024 12:00Broken Clouds18°C16 mph, SW82%10000m1005hPa93%
13-Jun-2024 15:00Broken Clouds19°C18 mph, W83%10000m1004hPa86%
13-Jun-2024 18:00Broken Clouds23°C16 mph, W80%10000m1005hPa69%
13-Jun-2024 21:00Few Clouds21°C11 mph, W19%10000m1006hPa68%
14-Jun-2024 00:00Broken Clouds19°C9 mph, N52%10000m1009hPa63%
14-Jun-2024 03:00Clear Sky13°C4 mph, NW3%10000m1011hPa83%
14-Jun-2024 06:00Clear Sky10°C4 mph, NW2%10000m1013hPa98%
14-Jun-2024 09:00Clear Sky9°C2 mph, NW1%10000m1014hPa97%
14-Jun-2024 12:00Few Clouds13°C2 mph, NW12%10000m1016hPa77%
14-Jun-2024 15:00Clear Sky19°C9 mph, NW2%10000m1016hPa53%
14-Jun-2024 18:00Clear Sky22°C11 mph, NW1%10000m1017hPa38%
14-Jun-2024 21:00Clear Sky21°C11 mph, NW0%10000m1017hPa33%
15-Jun-2024 00:00Clear Sky16°C7 mph, NW0%10000m1019hPa50%
15-Jun-2024 03:00Clear Sky10°C4 mph, N0%10000m1020hPa63%
15-Jun-2024 06:00Clear Sky7°C2 mph, NE0%10000m1021hPa66%
15-Jun-2024 09:00Clear Sky6°C2 mph, E7%10000m1022hPa72%
15-Jun-2024 12:00Few Clouds12°C4 mph, E11%10000m1022hPa64%
15-Jun-2024 15:00Few Clouds19°C7 mph, SE11%10000m1022hPa40%
15-Jun-2024 18:00Scattered Clouds23°C7 mph, SE37%10000m1020hPa33%
15-Jun-2024 21:00Overcast Clouds24°C4 mph, SE100%10000m1017hPa35%
16-Jun-2024 00:00Overcast Clouds17°C7 mph, E100%10000m1017hPa61%
16-Jun-2024 03:00Overcast Clouds16°C7 mph, SE100%10000m1018hPa58%
16-Jun-2024 06:00Overcast Clouds13°C7 mph, SE100%10000m1017hPa61%
16-Jun-2024 09:00Moderate Rain13°C7 mph, SE100%6487m1016hPa99%
16-Jun-2024 12:00Light Rain14°C11 mph, SE100%7562m1015hPa98%
16-Jun-2024 15:00Moderate Rain14°C11 mph, SE100%10000m1013hPa94%
16-Jun-2024 18:00Light Rain16°C11 mph, S100%10000m1012hPa93%
16-Jun-2024 21:00Light Rain22°C11 mph, S100%10000m1009hPa79%
17-Jun-2024 00:00Overcast Clouds22°C11 mph, S100%10000m1009hPa79%
17-Jun-2024 03:00Scattered Clouds20°C9 mph, S50%10000m1009hPa91%
17-Jun-2024 06:00Scattered Clouds19°C7 mph, S28%10000m1008hPa98%
17-Jun-2024 09:00Scattered Clouds20°C7 mph, SW30%10000m1008hPa99%
17-Jun-2024 12:00Light Rain21°C7 mph, SW51%10000m1009hPa95%
17-Jun-2024 15:00Overcast Clouds21°C7 mph, W100%3565m1010hPa91%
17-Jun-2024 18:00Overcast Clouds25°C4 mph, NW100%10000m1011hPa72%
17-Jun-2024 21:00Light Rain20°C2 mph, SE100%10000m1011hPa93%
18-Jun-2024 00:00Light Rain19°C2 mph, W87%10000m1012hPa86%